DLM weather

Dalaman International Airport
Dalaman, Mu─čla Province, Turkey

Public forecast

Using degrees Celsius for public forecast. Weather courtesy of forecast.io.

METAR (pilot weather report)

Retrieved 2019/03/23 14:20 UTC (0 seconds ago):

LTBS 231420Z 22005KT 9999 FEW030 19/07 Q1012 NOSIG

TAF (pilot weather forecast)

Forecast is more than 12 hours old.

Retrieved 2019/03/21 18:01 UTC (2 days ago):

TAF LTBS 211640Z 2118/2218 VRB02KT 9999 SCT030 BKN080 BECMG 2122/2124 CAVOK BECMG 2207/2209 21012KT SCT030 BECMG 2216/2218 VRB02KT CAVOK